Data for 11/11/2014

Time Sea-Level Adjusted Pressure Absolute Pressure Temperature Relative Humidity Dew Point   
(mb) (inHg) (mb) (inHg) (C) (F) (%) (C) (F)
00:05 1023 30.21 852 25.16 -12.9 8.8 78 -15.9 3.3
00:10 1023 30.21 852 25.16 -13.1 8.4 78 -16.2 2.9
00:15 1023 30.21 852 25.16 -13.3 8.1 77 -16.5 2.2
00:20 1023 30.21 852 25.16 -13.4 7.9 77 -16.6 2.1
00:25 1023 30.21 852 25.16 -13.5 7.8 77 -16.6 2.1
00:30 1023 30.21 852 25.16 -13.5 7.8 76 -16.8 1.8
00:35 1023 30.21 852 25.16 -13.5 7.7 74 -17.2 1
00:40 1023 30.21 852 25.16 -13.6 7.5 74 -17.4 0.8
00:45 1023 30.21 852 25.16 -13.8 7.2 73 -17.7 0.1
00:50 1023 30.21 852 25.16 -14 6.7 73 -18 -0.3
00:55 1023 30.21 853 25.19 -14.2 6.4 71 -18.4 -1.1
01:00 1023 30.21 852 25.16 -14.4 6.1 71 -18.6 -1.5
01:05 1023 30.21 852 25.16 -14.5 5.9 69 -18.9 -2.1
01:10 1023 30.21 852 25.16 -14.5 5.9 69 -19.1 -2.4
01:15 1023 30.21 852 25.16 -14.5 5.9 69 -19 -2.2
01:20 1023 30.21 852 25.16 -14.6 5.8 69 -19 -2.2
01:25 1023 30.21 853 25.19 -14.7 5.6 70 -19 -2.1
01:30 1023 30.21 852 25.16 -14.7 5.5 70 -19.1 -2.4
01:35 1023 30.21 852 25.16 -14.8 5.4 69 -19.2 -2.5
01:40 1023 30.21 852 25.16 -14.9 5.3 69 -19.3 -2.7
01:45 1023 30.21 853 25.19 -15 5 69 -19.4 -3
01:50 1023 30.21 853 25.19 -15.1 4.8 69 -19.5 -3.1
01:55 1023 30.21 853 25.19 -15.2 4.6 70 -19.5 -3.1
02:00 1023 30.21 853 25.19 -15.3 4.5 70 -19.6 -3.2
02:05 1024 30.24 853 25.19 -15.4 4.3 69 -19.8 -3.7
02:10 1024 30.24 853 25.19 -15.5 4.2 70 -19.8 -3.7
02:15 1024 30.24 853 25.19 -15.5 4.1 69 -19.9 -3.8
02:20 1024 30.24 853 25.19 -15.6 3.8 70 -20 -4
02:25 1024 30.24 853 25.19 -15.7 3.7 71 -19.9 -3.8
02:30 1024 30.24 853 25.19 -15.9 3.5 69 -20.2 -4.4
02:35 1024 30.24 853 25.19 -15.8 3.5 69 -20.3 -4.5
02:40 1024 30.24 853 25.19 -15.9 3.4 70 -20.2 -4.3
02:45 1024 30.24 853 25.19 -15.9 3.3 69 -20.4 -4.7
02:50 1024 30.24 853 25.19 -15.8 3.5 68 -20.5 -4.9
02:55 1024 30.24 853 25.19 -15.8 3.6 67 -20.6 -5.1
03:00 1024 30.24 853 25.19 -15.8 3.7 67 -20.5 -4.9
03:05 1024 30.24 853 25.19 -15.8 3.6 68 -20.4 -4.8
03:10 1024 30.24 853 25.19 -15.8 3.5 68 -20.4 -4.8
03:15 1024 30.24 853 25.19 -15.9 3.4 67 -20.7 -5.3
03:20 1024 30.24 853 25.19 -15.8 3.5 67 -20.7 -5.3
03:25 1024 30.24 853 25.19 -15.8 3.5 67 -20.7 -5.3
03:30 1024 30.24 853 25.19 -15.9 3.5 67 -20.7 -5.3
03:35 1024 30.24 853 25.19 -15.9 3.4 65 -21 -5.7
03:40 1024 30.24 853 25.19 -15.9 3.4 65 -21.1 -6
03:45 1024 30.24 853 25.19 -15.9 3.4 66 -20.9 -5.6
03:50 1024 30.24 853 25.19 -16 3.3 68 -20.5 -5
03:55 1024 30.24 853 25.19 -16 3.2 68 -20.6 -5.1
04:00 1024 30.24 853 25.19 -16 3.2 68 -20.7 -5.2
04:05 1024 30.24 854 25.22 -16 3.3 66 -20.9 -5.6
04:10 1024 30.24 854 25.22 -16 3.3 66 -21 -5.8
04:15 1024 30.24 854 25.22 -15.9 3.3 66 -20.8 -5.5
04:20 1025 30.27 854 25.22 -15.9 3.5 66 -20.9 -5.6
04:25 1025 30.27 854 25.22 -15.9 3.3 67 -20.8 -5.5
04:30 1025 30.27 854 25.22 -16 3.3 66 -20.9 -5.6
04:35 1025 30.27 854 25.22 -16 3.1 72 -20.1 -4.1
04:40 1025 30.27 854 25.22 -16.1 2.9 72 -20.1 -4.2
04:45 1025 30.27 854 25.22 -16.2 2.9 74 -19.8 -3.7
04:50 1025 30.27 854 25.22 -16.3 2.8 73 -20 -4
04:55 1025 30.27 854 25.22 -16.4 2.4 76 -19.8 -3.7
05:00 1025 30.27 854 25.22 -16.5 2.4 79 -19.3 -2.7
05:05 1025 30.27 854 25.22 -16.3 2.6 77 -19.5 -3
05:10 1025 30.27 854 25.22 -16.6 2.2 76 -19.8 -3.7
05:15 1025 30.27 854 25.22 -16.7 1.9 78 -19.7 -3.5
05:20 1025 30.27 854 25.22 -16.7 1.9 73 -20.4 -4.7
05:25 1025 30.27 854 25.22 -16.7 1.9 79 -19.5 -3.1
05:30 1025 30.27 854 25.22 -16.7 1.9 79 -19.5 -3.1
05:35 1025 30.27 854 25.22 -16.8 1.7 78 -19.8 -3.6
05:40 1025 30.27 855 25.25 -16.9 1.5 77 -20.1 -4.2
05:45 1025 30.27 855 25.25 -16.8 1.7 77 -20 -3.9
05:50 1026 30.3 855 25.25 -16.8 1.8 75 -20.2 -4.4
05:55 1026 30.3 855 25.25 -16.9 1.6 77 -20 -4.1
06:00 1026 30.3 855 25.25 -17 1.4 77 -20.1 -4.3
06:05 1026 30.3 855 25.25 -17 1.3 75 -20.5 -4.8
06:10 1026 30.3 855 25.25 -17.1 1.3 75 -20.5 -4.9
06:15 1026 30.3 855 25.25 -17.2 1.1 77 -20.3 -4.5
06:20 1026 30.3 855 25.25 -17.2 1.1 77 -20.3 -4.5
06:25 1026 30.3 855 25.25 -17.2 1 76 -20.5 -4.9
06:30 1026 30.3 855 25.25 -17.2 1 76 -20.6 -5
06:35 1026 30.3 855 25.25 -17.3 0.9 77 -20.5 -4.9
06:40 1026 30.3 855 25.25 -17.3 0.8 78 -20.3 -4.5
06:45 1026 30.3 855 25.25 -17.3 0.9 76 -20.6 -5
06:50 1026 30.3 855 25.25 -17.4 0.7 75 -20.8 -5.4
06:55 1026 30.3 855 25.25 -17.5 0.6 75 -20.9 -5.6
07:00 1026 30.3 855 25.25 -17.4 0.8 73 -21.2 -6.1
07:05 1026 30.3 855 25.25 -17.4 0.8 72 -21.2 -6.2
07:10 1026 30.3 855 25.25 -17.1 1.2 69 -21.6 -6.8
07:15 1026 30.3 855 25.25 -17.2 1 72 -21.1 -6
07:20 1026 30.3 855 25.25 -17.3 1 69 -21.6 -6.9
07:25 1026 30.3 855 25.25 -17.2 1.1 66 -22.2 -7.9
07:30 1026 30.3 855 25.25 -17.3 0.9 64 -22.6 -8.7
07:35 1026 30.3 855 25.25 -17.3 0.8 63 -22.8 -9
07:40 1026 30.3 855 25.25 -17.3 0.8 63 -22.8 -9.1
07:45 1026 30.3 855 25.25 -17.4 0.8 67 -22.2 -7.9
07:50 1026 30.3 855 25.25 -17.4 0.7 67 -22.1 -7.8
07:55 1026 30.3 855 25.25 -17.4 0.7 68 -22 -7.7
08:00 1026 30.3 855 25.25 -17.8 -0.1 72 -21.7 -7.1
08:05 1026 30.3 856 25.28 -18 -0.5 74 -21.6 -6.9
08:10 1026 30.3 856 25.28 -18.1 -0.6 73 -21.8 -7.2
08:15 1026 30.3 856 25.28 -18 -0.4 74 -21.6 -6.9
08:20 1027 30.33 856 25.28 -18.1 -0.6 73 -21.9 -7.4
08:25 1027 30.33 856 25.28 -18.4 -1 74 -21.9 -7.5
08:30 1027 30.33 856 25.28 -18.4 -1.2 74 -22 -7.5
08:35 1027 30.33 856 25.28 -18.4 -1.1 74 -21.9 -7.4
08:40 1027 30.33 856 25.28 -18.4 -1.2 74 -22.1 -7.7
08:45 1027 30.33 856 25.28 -18.6 -1.4 74 -22.1 -7.7
08:50 1027 30.33 856 25.28 -18.6 -1.5 74 -22.1 -7.8
08:55 1027 30.33 856 25.28 -18.7 -1.6 74 -22.2 -7.9
09:00 1027 30.33 856 25.28 -18.6 -1.6 74 -22.2 -8
09:05 1027 30.33 856 25.28 -18.6 -1.5 73 -22.3 -8.2
09:10 1027 30.33 856 25.28 -18.6 -1.5 73 -22.4 -8.4
09:15 1027 30.33 856 25.28 -18.6 -1.5 72 -22.4 -8.3
09:20 1027 30.33 856 25.28 -18.6 -1.4 71 -22.6 -8.7
09:25 1027 30.33 857 25.31 -18.4 -1.1 69 -22.8 -9.1
09:30 1027 30.33 857 25.31 -18.4 -1 66 -23.2 -9.7
09:35 1027 30.33 857 25.31 -18.1 -0.7 66 -23 -9.5
09:40 1027 30.33 857 25.31 -18.3 -0.9 67 -23 -9.5
09:45 1028 30.36 857 25.31 -18.4 -1.2 67 -23.1 -9.6
09:50 1028 30.36 857 25.31 -18.5 -1.4 68 -23 -9.4
09:55 1028 30.36 857 25.31 -18.7 -1.7 70 -22.9 -9.2
10:00 1028 30.36 857 25.31 -18.7 -1.7 69 -23.1 -9.6
10:05 1028 30.36 857 25.31 -18.8 -1.9 69 -23.1 -9.6
10:10 1028 30.36 857 25.31 -18.7 -1.6 68 -23.2 -9.7
10:15 1028 30.36 857 25.31 -18.4 -1.1 67 -23.1 -9.6
10:20 1028 30.36 857 25.31 -18.4 -1.2 67 -23.2 -9.8
10:25 1028 30.36 857 25.31 -18.3 -0.9 64 -23.5 -10.2
10:30 1028 30.36 857 25.31 -18.3 -1 65 -23.4 -10.1
10:35 1028 30.36 857 25.31 -18.3 -1 63 -23.7 -10.7
10:40 1028 30.36 857 25.31 -18.4 -1.1 62 -24 -11.1
10:45 1028 30.36 857 25.31 -18.2 -0.7 63 -23.6 -10.5
10:50 1028 30.36 857 25.31 -18 -0.3 62 -23.6 -10.5
10:55 1028 30.36 857 25.31 -17.6 0.4 59 -23.7 -10.6
11:00 1028 30.36 857 25.31 -17.4 0.6 61 -23.4 -10.1
11:05 1028 30.36 857 25.31 -17.7 0.1 63 -23.2 -9.7
11:10 1028 30.36 857 25.31 -17.5 0.5 62 -23.2 -9.7
11:15 1028 30.36 857 25.31 -17.7 0.1 63 -23.1 -9.6
11:20 1028 30.36 857 25.31 -18 -0.5 65 -23.2 -9.7
11:25 1028 30.36 857 25.31 -17.7 0.1 65 -22.8 -9.1
11:30 1028 30.36 857 25.31 -17.3 0.9 62 -22.9 -9.3
11:35 1028 30.36 857 25.31 -17.8 0.1 62 -23.4 -10.2
11:40 1028 30.36 857 25.31 -17.7 0.1 62 -23.4 -10.2
11:45 1028 30.36 857 25.31 -17.5 0.5 59 -23.8 -10.8
11:50 1028 30.36 857 25.31 -17 1.4 59 -23.3 -9.9
11:55 1028 30.36 857 25.31 -16.5 2.3 57 -23.1 -9.6
12:00 1028 30.36 857 25.31 -16.8 1.8 60 -22.9 -9.2
12:05 1028 30.36 857 25.31 -16.6 2.1 59 -22.8 -9.1
12:10 1028 30.36 858 25.34 -16.2 2.9 57 -22.8 -9.1
12:15 1028 30.36 857 25.31 -16.1 3.1 59 -22.4 -8.3
12:20 1028 30.36 857 25.31 -15.9 3.3 57 -22.5 -8.6
12:25 1028 30.36 857 25.31 -16.2 2.8 60 -22.3 -8.1
12:30 1028 30.36 857 25.31 -16.1 3.1 58 -22.5 -8.6
12:35 1028 30.36 857 25.31 -16 3.3 58 -22.4 -8.3
12:40 1028 30.36 858 25.34 -15.1 4.9 54 -22.5 -8.6
12:45 1028 30.36 858 25.34 -15 5.1 55 -22 -7.6
12:50 1028 30.36 858 25.34 -14.8 5.4 54 -22.1 -7.8
12:55 1028 30.36 858 25.34 -14.5 5.8 52 -22.4 -8.4
13:00 1029 30.39 858 25.34 -15.3 4.6 55 -22.4 -8.3
13:05 1028 30.36 858 25.34 -15.4 4.2 55 -22.5 -8.6
13:10 1028 30.36 858 25.34 -14.7 5.6 53 -22.4 -8.2
13:15 1028 30.36 858 25.34 -14.9 5.2 54 -22.3 -8.1
13:20 1028 30.36 858 25.34 -14.8 5.5 50 -23 -9.4
13:25 1028 30.36 858 25.34 -15.3 4.4 52 -23.2 -9.7
13:30 1028 30.36 858 25.34 -15.4 4.3 53 -23 -9.3
13:35 1028 30.36 858 25.34 -14.7 5.5 54 -22.2 -8
13:40 1028 30.36 858 25.34 -14.6 5.8 51 -22.6 -8.7
13:45 1028 30.36 857 25.31 -15.6 4 56 -22.4 -8.3
13:50 1028 30.36 857 25.31 -15 5.1 54 -22.3 -8.2
13:55 1028 30.36 857 25.31 -15.3 4.5 54 -22.6 -8.7
14:00 1028 30.36 857 25.31 -15.4 4.3 53 -22.9 -9.3
14:05 1028 30.36 857 25.31 -15.6 4 55 -22.6 -8.7
14:10 1028 30.36 857 25.31 -15.1 4.9 53 -22.6 -8.8
14:15 1028 30.36 857 25.31 -14.3 6.2 50 -22.7 -8.9
14:20 1028 30.36 857 25.31 -14.5 5.8 52 -22.3 -8.2
14:25 1028 30.36 857 25.31 -14.5 5.8 51 -22.6 -8.6
14:30 1028 30.36 857 25.31 -15 5 53 -22.6 -8.6
14:35 1028 30.36 857 25.31 -15.1 4.8 54 -22.4 -8.3
14:40 1028 30.36 857 25.31 -14.6 5.7 53 -22.2 -8
14:45 1028 30.36 857 25.31 -14.2 6.4 52 -22 -7.6
14:50 1028 30.36 857 25.31 -14.7 5.6 56 -21.7 -7.1
14:55 1028 30.36 857 25.31 -15.2 4.6 56 -22.3 -8.1
15:00 1028 30.36 857 25.31 -15.6 4 55 -22.7 -8.9
15:05 1028 30.36 857 25.31 -15.7 3.7 56 -22.7 -8.9
15:10 1028 30.36 857 25.31 -15.5 4.2 54 -22.8 -9
15:15 1028 30.36 857 25.31 -15.1 4.7 56 -22.1 -7.7
15:20 1028 30.36 857 25.31 -14.5 5.9 53 -22.1 -7.9
15:25 1028 30.36 857 25.31 -14.6 5.8 53 -22 -7.7
15:30 1028 30.36 857 25.31 -15.4 4.3 54 -22.7 -8.8
15:35 1028 30.36 858 25.34 -15.5 4.1 54 -22.8 -9
15:40 1028 30.36 858 25.34 -15.3 4.4 55 -22.5 -8.4
15:45 1028 30.36 858 25.34 -14.6 5.7 54 -21.9 -7.4
15:50 1028 30.36 858 25.34 -14.8 5.3 53 -22.4 -8.3
15:55 1028 30.36 858 25.34 -15.1 4.9 55 -22.1 -7.9
16:00 1028 30.36 858 25.34 -14.5 5.9 51 -22.6 -8.6
16:05 1028 30.36 858 25.34 -15.1 4.9 56 -22 -7.7
16:10 1028 30.36 858 25.34 -15.3 4.5 55 -22.4 -8.3
16:15 1028 30.36 858 25.34 -15.4 4.2 55 -22.5 -8.5
16:20 1028 30.36 858 25.34 -15.6 3.8 57 -22.4 -8.4
16:25 1028 30.36 858 25.34 -15.7 3.8 58 -22.2 -7.9
16:30 1028 30.36 858 25.34 -15.4 4.3 57 -22.2 -8
16:35 1028 30.36 858 25.34 -15.6 3.8 58 -22.1 -7.9
16:40 1028 30.36 858 25.34 -15.6 3.8 57 -22.4 -8.3
16:45 1028 30.36 858 25.34 -15.7 3.7 58 -22.1 -7.9
16:50 1029 30.39 858 25.34 -15.6 3.9 56 -22.5 -8.4
16:55 1029 30.39 858 25.34 -15.6 3.9 57 -22.3 -8.1
17:00 1029 30.39 858 25.34 -15.6 4 56 -22.6 -8.6
17:05 1029 30.39 858 25.34 -15.9 3.4 58 -22.3 -8.1
17:10 1029 30.39 858 25.34 -16 3.3 58 -22.4 -8.2
17:15 1029 30.39 858 25.34 -16.2 2.8 57 -22.8 -9.1
17:20 1029 30.39 858 25.34 -16.1 3 58 -22.5 -8.5
17:25 1029 30.39 858 25.34 -16.3 2.7 59 -22.5 -8.5
17:30 1029 30.39 858 25.34 -16.6 2.1 59 -22.9 -9.2
17:35 1029 30.39 858 25.34 -16.6 2.1 58 -23.1 -9.6
17:40 1029 30.39 858 25.34 -16.7 2 59 -23 -9.3
17:45 1029 30.39 858 25.34 -16.9 1.5 60 -23 -9.4
17:50 1029 30.39 858 25.34 -17.1 1.3 61 -22.9 -9.2
17:55 1029 30.39 858 25.34 -17.3 0.9 62 -23 -9.4
18:00 1029 30.39 858 25.34 -17.6 0.2 63 -23.1 -9.6
18:05 1029 30.39 858 25.34 -18 -0.5 64 -23.3 -10
18:10 1029 30.39 858 25.34 -18.2 -0.8 64 -23.4 -10.2
18:15 1029 30.39 858 25.34 -18.3 -1 64 -23.5 -10.3
18:20 1029 30.39 858 25.34 -18.3 -0.9 64 -23.5 -10.3
18:25 1029 30.39 858 25.34 -18.4 -1.1 65 -23.5 -10.4
18:30 1029 30.39 858 25.34 -18.6 -1.4 67 -23.3 -10
18:35 1029 30.39 858 25.34 -18.6 -1.4 66 -23.4 -10.2
18:40 1029 30.39 858 25.34 -18.5 -1.2 67 -23.2 -9.8
18:45 1029 30.39 858 25.34 -18.4 -1.2 67 -23.2 -9.8
18:50 1029 30.39 858 25.34 -18.4 -1.1 66 -23.2 -9.8
18:55 1029 30.39 858 25.34 -18.3 -0.9 66 -23.1 -9.6
19:00 1029 30.39 858 25.34 -18.1 -0.6 66 -23 -9.4
19:05 1029 30.39 858 25.34 -17.9 -0.2 66 -22.8 -9
19:10 1029 30.39 858 25.34 -17.8 -0 66 -22.7 -8.8
19:15 1029 30.39 858 25.34 -18 -0.4 67 -22.6 -8.7
19:20 1029 30.39 858 25.34 -17.8 0 68 -22.4 -8.2
19:25 1029 30.39 858 25.34 -17.8 0 67 -22.5 -8.5
19:30 1029 30.39 858 25.34 -17.6 0.3 67 -22.4 -8.4
19:35 1029 30.39 858 25.34 -17.4 0.6 67 -22.2 -8
19:40 1029 30.39 858 25.34 -17.3 0.9 67 -22.1 -7.7
19:45 1029 30.39 858 25.34 -17.2 1 67 -21.9 -7.5
19:50 1029 30.39 858 25.34 -17.5 0.5 71 -21.6 -7
19:55 1029 30.39 859 25.37 -17.8 -0.1 72 -21.7 -7
20:00 1029 30.39 859 25.37 -18 -0.3 73 -21.8 -7.2
20:05 1029 30.39 859 25.37 -18.2 -0.7 74 -21.8 -7.3
20:10 1029 30.39 859 25.37 -18.2 -0.8 73 -21.9 -7.4
20:15 1029 30.39 859 25.37 -18.1 -0.7 74 -21.7 -7
20:20 1029 30.39 859 25.37 -17.9 -0.2 73 -21.6 -6.9
20:25 1029 30.39 859 25.37 -17.9 -0.2 72 -21.7 -7.1
20:30 1030 30.42 859 25.37 -17.9 -0.3 72 -21.8 -7.3
20:35 1030 30.42 859 25.37 -18 -0.4 72 -21.9 -7.5
20:40 1030 30.42 859 25.37 -18.1 -0.5 72 -22 -7.6
20:45 1030 30.42 859 25.37 -18 -0.3 72 -21.8 -7.3
20:50 1030 30.42 859 25.37 -17.9 -0.2 72 -21.7 -7.1
20:55 1030 30.42 859 25.37 -17.8 -0 72 -21.7 -7.1
21:00 1030 30.42 859 25.37 -17.9 -0.2 73 -21.7 -7
21:05 1030 30.42 859 25.37 -17.8 -0 72 -21.6 -6.9
21:10 1030 30.42 859 25.37 -17.8 0 74 -21.4 -6.5
21:15 1030 30.42 859 25.37 -17.8 -0 75 -21.2 -6.2
21:20 1030 30.42 859 25.37 -17.7 0.1 74 -21.3 -6.3
21:25 1030 30.42 859 25.37 -17.8 0 74 -21.3 -6.3
21:30 1030 30.42 859 25.37 -17.7 0.1 75 -21.2 -6.2
21:35 1030 30.42 859 25.37 -17.8 -0.1 75 -21.3 -6.3
21:40 1030 30.42 859 25.37 -17.9 -0.3 76 -21.2 -6.2
21:45 1030 30.42 859 25.37 -17.9 -0.1 76 -21.1 -6
21:50 1030 30.42 859 25.37 -17.9 -0.2 76 -21.1 -6
21:55 1030 30.42 859 25.37 -17.8 -0 76 -21 -5.8
22:00 1030 30.42 859 25.37 -17.9 -0.2 75 -21.3 -6.3
22:05 1030 30.42 859 25.37 -18.1 -0.7 76 -21.4 -6.5
22:10 1030 30.42 859 25.37 -18.2 -0.8 77 -21.3 -6.4
22:15 1030 30.42 859 25.37 -18.2 -0.8 76 -21.4 -6.5
22:20 1030 30.42 859 25.37 -18.3 -0.9 78 -21.3 -6.3
22:25 1030 30.42 859 25.37 -18.2 -0.8 77 -21.3 -6.3
22:30 1030 30.42 859 25.37 -18.3 -0.9 79 -21.2 -6.1
22:35 1030 30.42 859 25.37 -18.3 -1 79 -21.2 -6.1
22:40 1030 30.42 859 25.37 -18.4 -1.1 78 -21.3 -6.4
22:45 1030 30.42 859 25.37 -18.5 -1.3 78 -21.5 -6.7
22:50 1030 30.42 859 25.37 -18.6 -1.4 78 -21.5 -6.8
22:55 1030 30.42 859 25.37 -18.5 -1.3 78 -21.4 -6.5
23:00 1030 30.42 860 25.4 -18.5 -1.3 78 -21.4 -6.6
23:05 1030 30.42 860 25.4 -18.5 -1.3 79 -21.4 -6.5
23:10 1030 30.42 860 25.4 -18.4 -1.1 78 -21.4 -6.5
23:15 1030 30.42 860 25.4 -18.4 -1.1 78 -21.3 -6.3
23:20 1030 30.42 860 25.4 -18.3 -1 78 -21.2 -6.2
23:25 1030 30.42 860 25.4 -18.3 -0.9 78 -21.2 -6.2
23:30 1030 30.42 860 25.4 -18.2 -0.8 78 -21.2 -6.2
23:35 1030 30.42 860 25.4 -18.2 -0.8 79 -21.1 -6
23:40 1030 30.42 860 25.4 -18.3 -0.9 78 -21.2 -6.1
23:45 1030 30.42 860 25.4 -18.3 -0.9 79 -21.1 -6
23:50 1030 30.42 860 25.4 -18.2 -0.8 78 -21.2 -6.1
23:55 1030 30.42 860 25.4 -18.3 -0.9 78 -21.2 -6.1
24:00 1030 30.42 859 25.37 -18.2 -0.7 80 -20.9 -5.5